createdAt,value
2022-11-24T00:01:09.988Z,0.52
2022-11-24T00:03:37.247Z,0.46
2022-11-24T00:06:11.882Z,0.44
2022-11-24T00:08:40.080Z,0.45
2022-11-24T00:11:09.217Z,0.41
2022-11-24T00:13:36.210Z,0.36
2022-11-24T00:16:14.593Z,0.32
2022-11-24T00:18:42.912Z,0.36
2022-11-24T00:21:10.087Z,0.33
2022-11-24T00:23:37.420Z,0.28
2022-11-24T00:26:06.026Z,0.27
2022-11-24T00:28:34.196Z,0.25
2022-11-24T00:31:01.466Z,0.24
2022-11-24T00:33:27.880Z,0.23
2022-11-24T00:35:59.185Z,0.08
2022-11-24T00:38:25.918Z,0.04
2022-11-24T00:40:52.967Z,0.06
2022-11-24T00:43:19.739Z,0.11
2022-11-24T00:45:46.197Z,0.07
2022-11-24T00:48:12.697Z,0.04
2022-11-24T00:50:39.064Z,0.04
2022-11-24T00:53:05.453Z,-0.04
2022-11-24T00:55:31.911Z,-0.05
2022-11-24T00:57:58.379Z,-0.11
2022-11-24T01:00:24.797Z,-0.10
2022-11-24T01:02:52.776Z,-0.10
2022-11-24T01:05:19.313Z,-0.11
2022-11-24T01:07:45.730Z,-0.17
2022-11-24T01:10:12.159Z,-0.19
2022-11-24T01:12:38.510Z,-0.22
2022-11-24T01:15:05.351Z,-0.30
2022-11-24T01:17:31.776Z,-0.35
2022-11-24T01:19:58.127Z,-0.37
2022-11-24T01:22:26.387Z,-0.33
2022-11-24T01:24:52.774Z,-0.35
2022-11-24T01:27:19.134Z,-0.39
2022-11-24T01:29:45.518Z,-0.36
2022-11-24T01:32:11.898Z,-0.33
2022-11-24T01:34:38.244Z,-0.44
2022-11-24T01:37:04.757Z,-0.46
2022-11-24T01:39:31.144Z,-0.49
2022-11-24T01:42:01.471Z,-0.42
2022-11-24T01:44:30.365Z,-0.49
2022-11-24T01:47:21.140Z,-0.54
2022-11-24T01:49:53.094Z,-0.54
2022-11-24T01:52:24.729Z,-0.55
2022-11-24T01:55:02.045Z,-0.51
2022-11-24T01:57:34.529Z,-0.51
2022-11-24T02:00:06.248Z,-0.55
2022-11-24T02:02:32.709Z,-0.53
2022-11-24T02:05:05.618Z,-0.57
2022-11-24T02:07:33.067Z,-0.64
2022-11-24T02:10:01.663Z,-0.62
2022-11-24T02:12:28.693Z,-0.66
2022-11-24T02:14:55.926Z,-0.66
2022-11-24T02:17:22.662Z,-0.63
2022-11-24T02:20:00.659Z,-0.64
2022-11-24T02:22:49.395Z,-0.72
2022-11-24T02:25:32.264Z,-0.73
2022-11-24T02:28:00.418Z,-0.69
2022-11-24T02:30:26.798Z,-0.76
2022-11-24T02:32:53.721Z,-0.79
2022-11-24T02:35:20.669Z,-0.81
2022-11-24T02:37:47.051Z,-0.77
2022-11-24T02:40:20.579Z,-0.79
2022-11-24T02:42:47.388Z,-0.83
2022-11-24T02:45:16.504Z,-0.70
2022-11-24T02:47:43.571Z,-0.81
2022-11-24T02:50:10.108Z,-0.81
2022-11-24T02:52:36.556Z,-0.90
2022-11-24T02:55:03.206Z,-0.84
2022-11-24T02:57:29.795Z,-0.92
2022-11-24T02:59:56.485Z,-0.90
2022-11-24T03:02:23.095Z,-0.93
2022-11-24T03:04:49.528Z,-1.00
2022-11-24T03:07:15.938Z,-0.95
2022-11-24T03:09:42.400Z,-0.95
2022-11-24T03:12:08.764Z,-0.97
2022-11-24T03:14:35.278Z,-0.95
2022-11-24T03:17:01.831Z,-1.01
2022-11-24T03:19:28.178Z,-1.04
2022-11-24T03:21:54.572Z,-1.03
2022-11-24T03:24:21.034Z,-1.00
2022-11-24T03:26:47.393Z,-1.03
2022-11-24T03:29:13.731Z,-1.06
2022-11-24T03:31:40.203Z,-1.10
2022-11-24T03:34:06.636Z,-1.06
2022-11-24T03:36:32.995Z,-1.08
2022-11-24T03:38:59.351Z,-1.19
2022-11-24T03:41:25.973Z,-1.18
2022-11-24T03:43:52.349Z,-1.19
2022-11-24T03:46:18.883Z,-1.20
2022-11-24T03:48:45.297Z,-1.21
2022-11-24T03:51:11.661Z,-1.24
2022-11-24T03:53:38.356Z,-1.24
2022-11-24T03:56:04.788Z,-1.32
2022-11-24T03:58:31.194Z,-1.29
2022-11-24T04:00:57.645Z,-1.29
2022-11-24T04:03:24.812Z,-1.29
2022-11-24T04:05:51.362Z,-1.35
2022-11-24T04:08:17.851Z,-1.34
2022-11-24T04:10:44.231Z,-1.36
2022-11-24T04:13:14.012Z,-1.38
2022-11-24T04:15:41.788Z,-1.41
2022-11-24T04:18:09.801Z,-1.39
2022-11-24T04:20:37.099Z,-1.44
2022-11-24T04:23:03.768Z,-1.42
2022-11-24T04:25:30.440Z,-1.41
2022-11-24T04:27:56.918Z,-1.45
2022-11-24T04:30:24.778Z,-1.45
2022-11-24T04:32:51.312Z,-1.52
2022-11-24T04:35:18.263Z,-1.52
2022-11-24T04:37:44.879Z,-1.55
2022-11-24T04:40:12.418Z,-1.54
2022-11-24T04:42:38.961Z,-1.59
2022-11-24T04:45:06.346Z,-1.58
2022-11-24T04:47:33.087Z,-1.60
2022-11-24T04:49:59.611Z,-1.63
2022-11-24T04:52:26.494Z,-1.66
2022-11-24T04:54:52.946Z,-1.61
2022-11-24T04:57:25.079Z,-1.63
2022-11-24T04:59:52.690Z,-1.58
2022-11-24T05:02:19.443Z,-1.68
2022-11-24T05:04:46.175Z,-1.67
2022-11-24T05:07:18.849Z,-1.70
2022-11-24T05:10:24.991Z,-1.66
2022-11-24T05:12:59.352Z,-1.68
2022-11-24T05:15:26.205Z,-1.78
2022-11-24T05:17:52.725Z,-1.81
2022-11-24T05:20:19.581Z,-1.75
2022-11-24T05:22:45.957Z,-1.71
2022-11-24T05:25:14.169Z,-1.71
2022-11-24T05:27:41.117Z,-1.69
2022-11-24T05:30:08.201Z,-1.64
2022-11-24T05:32:34.598Z,-1.62
2022-11-24T05:35:02.222Z,-1.57
2022-11-24T05:37:28.720Z,-1.55
2022-11-24T05:39:55.112Z,-1.49
2022-11-24T05:42:43.528Z,-1.47
2022-11-24T05:45:16.147Z,-1.46
2022-11-24T05:47:43.003Z,-1.40
2022-11-24T05:50:11.696Z,-1.36
2022-11-24T05:52:38.615Z,-1.32
2022-11-24T05:55:06.629Z,-1.32
2022-11-24T05:57:33.573Z,-1.33
2022-11-24T06:00:00.233Z,-1.29
2022-11-24T06:02:26.969Z,-1.32
2022-11-24T06:04:53.442Z,-1.21
2022-11-24T06:07:20.006Z,-1.22
2022-11-24T06:09:46.817Z,-1.19
2022-11-24T06:12:13.738Z,-1.16
2022-11-24T06:14:40.828Z,-1.06
2022-11-24T06:17:07.761Z,-1.01
2022-11-24T06:19:37.379Z,-1.00
2022-11-24T06:22:06.459Z,-1.07
2022-11-24T06:24:33.113Z,-0.98
2022-11-24T06:26:59.766Z,-0.96
2022-11-24T06:29:26.168Z,-1.01
2022-11-24T06:31:52.633Z,-0.98
2022-11-24T06:34:19.176Z,-0.94
2022-11-24T06:36:45.540Z,-0.88
2022-11-24T06:39:11.935Z,-0.90
2022-11-24T06:41:38.313Z,-0.88
2022-11-24T06:44:05.005Z,-0.76
2022-11-24T06:46:31.595Z,-0.67
2022-11-24T06:48:59.677Z,-0.61
2022-11-24T06:51:27.030Z,-0.72
2022-11-24T06:53:53.749Z,-0.64
2022-11-24T06:56:21.015Z,-0.60
2022-11-24T06:58:50.162Z,-0.55
2022-11-24T07:01:22.170Z,-0.55
2022-11-24T07:03:48.998Z,-0.51
2022-11-24T07:06:16.592Z,-0.45
2022-11-24T07:08:43.538Z,-0.44
2022-11-24T07:11:15.398Z,-0.38
2022-11-24T07:13:42.864Z,-0.31
2022-11-24T07:16:17.941Z,-0.12
2022-11-24T07:18:46.219Z,-0.12
2022-11-24T07:21:13.382Z,0.03
2022-11-24T07:23:40.040Z,0.06
2022-11-24T07:26:07.629Z,0.24
2022-11-24T07:28:35.051Z,0.29
2022-11-24T07:31:06.559Z,0.21
2022-11-24T07:33:32.989Z,0.22
2022-11-24T07:36:00.569Z,0.14
2022-11-24T07:38:26.857Z,0.12
2022-11-24T07:40:53.337Z,0.17
2022-11-24T07:43:20.426Z,0.23
2022-11-24T07:45:52.509Z,0.30
2022-11-24T07:48:18.968Z,0.30
2022-11-24T07:50:45.441Z,0.36
2022-11-24T07:53:12.145Z,0.41
2022-11-24T07:55:38.508Z,0.47
2022-11-24T07:58:04.952Z,0.52
2022-11-24T08:00:31.307Z,0.58
2022-11-24T08:02:57.780Z,0.61
2022-11-24T08:05:24.216Z,0.64
2022-11-24T08:07:50.716Z,0.67
2022-11-24T08:10:17.973Z,0.70
2022-11-24T08:12:44.485Z,0.74
2022-11-24T08:15:11.619Z,0.79
2022-11-24T08:17:38.232Z,0.79
2022-11-24T08:20:05.320Z,0.86
2022-11-24T08:22:31.778Z,0.96
2022-11-24T08:24:58.305Z,1.05
2022-11-24T08:27:24.811Z,1.08
2022-11-24T08:29:51.246Z,1.29
2022-11-24T08:32:22.335Z,1.23
2022-11-24T08:34:48.996Z,1.25
2022-11-24T08:37:15.398Z,1.35
2022-11-24T08:39:41.754Z,1.40
2022-11-24T08:42:08.148Z,1.49
2022-11-24T08:44:34.672Z,1.52
2022-11-24T08:47:01.151Z,1.63
2022-11-24T08:49:27.700Z,1.69
2022-11-24T08:51:56.696Z,1.74
2022-11-24T08:54:23.254Z,1.76
2022-11-24T08:56:50.021Z,1.81
2022-11-24T08:59:16.587Z,1.89
2022-11-24T09:01:43.117Z,1.96
2022-11-24T09:04:09.774Z,2.03
2022-11-24T09:06:36.302Z,2.19
2022-11-24T09:09:03.291Z,2.30
2022-11-24T09:11:30.725Z,2.36
2022-11-24T09:13:57.119Z,2.41
2022-11-24T09:16:26.316Z,2.51
2022-11-24T09:19:01.249Z,2.48
2022-11-24T09:21:28.492Z,2.53
2022-11-24T09:23:55.708Z,2.60
2022-11-24T09:26:27.604Z,2.61
2022-11-24T09:28:55.507Z,2.61
2022-11-24T09:31:25.195Z,2.67
2022-11-24T09:33:52.428Z,2.69
2022-11-24T09:36:19.318Z,2.75
2022-11-24T09:38:45.899Z,2.66
2022-11-24T09:41:18.326Z,2.69
2022-11-24T09:44:22.379Z,2.67
2022-11-24T09:47:03.844Z,2.71
2022-11-24T09:49:30.172Z,2.78
2022-11-24T09:51:57.456Z,2.84
2022-11-24T09:54:28.453Z,2.81
2022-11-24T09:56:59.759Z,2.86
2022-11-24T09:59:27.445Z,2.95
2022-11-24T10:01:54.903Z,3.03
2022-11-24T10:04:22.794Z,3.00
2022-11-24T10:07:09.085Z,3.02
2022-11-24T10:10:07.080Z,3.05
2022-11-24T10:13:16.488Z,3.05
2022-11-24T10:16:14.974Z,3.16
2022-11-24T10:19:02.492Z,3.23
2022-11-24T10:21:40.668Z,3.21
2022-11-24T10:24:44.668Z,3.30
2022-11-24T10:27:18.276Z,3.46
2022-11-24T10:29:48.107Z,3.52
2022-11-24T10:32:18.837Z,3.65
2022-11-24T10:34:48.755Z,3.73
2022-11-24T10:37:28.551Z,3.75
2022-11-24T10:40:40.425Z,3.74
2022-11-24T10:43:00.808Z,3.97
2022-11-24T10:45:28.997Z,4.03
2022-11-24T10:47:57.784Z,3.99
2022-11-24T10:50:38.033Z,4.09
2022-11-24T10:53:13.673Z,4.10
2022-11-24T10:55:55.747Z,4.16
2022-11-24T10:58:26.756Z,4.20
2022-11-24T11:00:54.686Z,4.22
2022-11-24T11:03:24.079Z,4.32
2022-11-24T11:06:15.072Z,4.52
2022-11-24T11:08:41.478Z,4.59
2022-11-24T11:11:27.390Z,4.57
2022-11-24T11:14:03.993Z,4.63
2022-11-24T11:16:54.030Z,4.57
2022-11-24T11:19:49.058Z,4.70
2022-11-24T11:22:25.947Z,4.80
2022-11-24T11:25:29.583Z,4.70
2022-11-24T11:28:18.649Z,4.88
2022-11-24T11:31:20.432Z,4.98
2022-11-24T11:34:23.503Z,5.13
2022-11-24T11:36:56.166Z,5.30
2022-11-24T11:39:43.842Z,5.47
2022-11-24T11:43:00.726Z,5.64
2022-11-24T11:45:30.841Z,5.85
2022-11-24T11:48:03.439Z,5.89
2022-11-24T11:51:14.792Z,6.03
2022-11-24T11:53:45.753Z,6.00
2022-11-24T11:56:24.424Z,6.13
2022-11-24T11:59:06.459Z,6.04
2022-11-24T12:01:46.911Z,6.00
2022-11-24T12:04:22.436Z,6.08
2022-11-24T12:07:06.047Z,6.14
2022-11-24T12:09:46.978Z,6.19
2022-11-24T12:12:38.857Z,6.24
2022-11-24T12:15:37.677Z,6.17
2022-11-24T12:18:26.786Z,6.18
2022-11-24T12:21:17.062Z,6.24
2022-11-24T12:23:53.369Z,6.21
2022-11-24T12:26:43.892Z,6.15
2022-11-24T12:29:37.024Z,6.26
2022-11-24T12:32:06.320Z,6.39
2022-11-24T12:34:53.045Z,6.51
2022-11-24T12:38:02.800Z,6.45
2022-11-24T12:40:35.105Z,6.44
2022-11-24T12:43:11.842Z,6.37
2022-11-24T12:46:19.733Z,6.50
2022-11-24T12:49:04.471Z,6.68
2022-11-24T12:51:38.304Z,6.60
2022-11-24T12:54:10.401Z,6.59
2022-11-24T12:56:43.256Z,6.65
2022-11-24T12:59:33.197Z,6.58
2022-11-24T13:02:21.426Z,6.53
2022-11-24T13:05:06.872Z,6.38
2022-11-24T13:07:42.760Z,6.40
2022-11-24T13:13:15.219Z,6.40
2022-11-24T13:16:20.578Z,6.54
2022-11-24T13:19:00.201Z,6.35
2022-11-24T13:21:42.814Z,6.25
2022-11-24T13:24:19.700Z,6.24
2022-11-24T13:26:55.295Z,6.19
2022-11-24T13:29:28.302Z,6.18
2022-11-24T13:31:55.977Z,6.22
2022-11-24T13:34:41.084Z,6.20
2022-11-24T13:37:39.544Z,6.27
2022-11-24T13:40:12.084Z,6.25
2022-11-24T13:43:02.734Z,6.27
2022-11-24T13:45:49.664Z,6.25
2022-11-24T13:48:18.930Z,6.20
2022-11-24T13:50:51.731Z,6.13
2022-11-24T13:53:38.558Z,6.10
2022-11-24T13:56:14.273Z,6.15
2022-11-24T13:58:48.623Z,6.22
2022-11-24T14:01:33.159Z,6.32
2022-11-24T14:07:09.554Z,6.42
2022-11-24T14:09:47.019Z,6.36
2022-11-24T14:12:13.424Z,6.36
2022-11-24T14:14:40.494Z,6.37
2022-11-24T14:17:12.917Z,6.33
2022-11-24T14:19:39.579Z,6.28
2022-11-24T14:22:06.027Z,6.24
2022-11-24T14:24:38.245Z,6.28
2022-11-24T14:27:15.325Z,6.28
2022-11-24T14:30:04.726Z,6.25
2022-11-24T14:32:31.282Z,6.23
2022-11-24T14:34:57.823Z,6.24
2022-11-24T14:37:24.569Z,6.21
2022-11-24T14:39:51.088Z,6.19
2022-11-24T14:42:23.705Z,6.24
2022-11-24T14:45:17.732Z,6.15
2022-11-24T14:47:45.188Z,6.13
2022-11-24T14:50:16.163Z,6.11
2022-11-24T14:52:52.419Z,6.10
2022-11-24T14:55:29.596Z,6.09
2022-11-24T14:57:56.680Z,6.04
2022-11-24T15:00:31.531Z,6.03
2022-11-24T15:03:01.042Z,5.99
2022-11-24T15:05:53.527Z,5.95
2022-11-24T15:08:20.235Z,5.90
2022-11-24T15:10:46.955Z,5.87
2022-11-24T15:13:20.475Z,5.85
2022-11-24T15:15:51.712Z,5.80
2022-11-24T15:18:27.842Z,5.79
2022-11-24T15:20:54.812Z,5.75
2022-11-24T15:23:26.114Z,5.73
2022-11-24T15:25:54.442Z,5.68
2022-11-24T15:28:25.989Z,5.63
2022-11-24T15:31:03.981Z,5.56
2022-11-24T15:33:31.106Z,5.51
2022-11-24T15:35:58.042Z,5.45
2022-11-24T15:38:24.476Z,5.41
2022-11-24T15:40:52.781Z,5.40
2022-11-24T15:43:36.735Z,5.36
2022-11-24T15:46:04.447Z,5.33
2022-11-24T15:48:31.093Z,5.30
2022-11-24T15:50:59.254Z,5.30
2022-11-24T15:53:30.140Z,5.28
2022-11-24T15:55:57.393Z,5.26
2022-11-24T15:58:24.222Z,5.23
2022-11-24T16:00:53.807Z,5.23
2022-11-24T16:06:12.719Z,5.20
2022-11-24T16:08:39.147Z,5.21
2022-11-24T16:11:05.723Z,5.22
2022-11-24T16:13:32.234Z,5.22
2022-11-24T16:15:58.753Z,5.19
2022-11-24T16:18:25.281Z,5.17
2022-11-24T16:20:51.663Z,5.15
2022-11-24T16:23:18.388Z,5.13
2022-11-24T16:25:44.999Z,5.11
2022-11-24T16:28:11.467Z,5.08
2022-11-24T16:30:38.202Z,5.07
2022-11-24T16:33:08.235Z,5.11
2022-11-24T16:35:34.635Z,5.10
2022-11-24T16:38:01.104Z,5.10
2022-11-24T16:40:28.553Z,5.07
2022-11-24T16:42:56.192Z,5.05
2022-11-24T16:45:22.716Z,5.06
2022-11-24T16:47:49.224Z,5.05
2022-11-24T16:50:15.776Z,5.05
2022-11-24T16:52:42.288Z,5.05
2022-11-24T16:55:09.741Z,5.05
2022-11-24T16:57:36.833Z,5.04
2022-11-24T17:00:05.095Z,5.04
2022-11-24T17:02:32.810Z,5.03
2022-11-24T17:04:59.230Z,5.02
2022-11-24T17:07:26.335Z,5.02
2022-11-24T17:09:52.758Z,5.01
2022-11-24T17:12:19.285Z,5.00
2022-11-24T17:15:03.113Z,4.98
2022-11-24T17:17:32.262Z,4.97
2022-11-24T17:19:58.674Z,4.96
2022-11-24T17:22:25.142Z,4.94
2022-11-24T17:24:51.523Z,4.94
2022-11-24T17:27:17.994Z,4.93
2022-11-24T17:29:44.394Z,4.93
2022-11-24T17:32:10.830Z,4.94
2022-11-24T17:34:37.452Z,4.92
2022-11-24T17:37:04.005Z,4.90
2022-11-24T17:39:30.410Z,4.87
2022-11-24T17:41:56.773Z,4.86
2022-11-24T17:44:23.245Z,4.86
2022-11-24T17:46:50.729Z,4.85
2022-11-24T17:49:18.274Z,4.89
2022-11-24T17:51:50.243Z,4.89
2022-11-24T17:54:45.545Z,4.88
2022-11-24T17:57:04.511Z,4.88
2022-11-24T17:59:30.914Z,4.88
2022-11-24T18:01:57.391Z,4.86
2022-11-24T18:04:23.807Z,4.84
2022-11-24T18:06:50.195Z,4.82
2022-11-24T18:09:16.650Z,4.80
2022-11-24T18:11:43.197Z,4.79
2022-11-24T18:14:09.849Z,4.75
2022-11-24T18:16:36.284Z,4.73
2022-11-24T18:19:08.785Z,4.73
2022-11-24T18:21:40.693Z,4.72
2022-11-24T18:24:09.004Z,4.76
2022-11-24T18:26:35.640Z,4.86
2022-11-24T18:29:02.267Z,4.80
2022-11-24T18:31:29.575Z,4.77
2022-11-24T18:33:56.155Z,4.74
2022-11-24T18:36:29.865Z,4.72
2022-11-24T18:38:57.863Z,4.72
2022-11-24T18:41:24.219Z,4.71
2022-11-24T18:43:50.679Z,4.67
2022-11-24T18:46:17.661Z,4.68
2022-11-24T18:48:45.375Z,4.68
2022-11-24T18:51:15.329Z,4.65
2022-11-24T18:53:43.143Z,4.63
2022-11-24T18:56:15.724Z,4.63
2022-11-24T18:58:43.204Z,4.59
2022-11-24T19:01:21.449Z,4.61
2022-11-24T19:03:51.069Z,4.62
2022-11-24T19:06:39.358Z,4.64
2022-11-24T19:09:08.946Z,4.64
2022-11-24T19:11:38.385Z,4.63
2022-11-24T19:14:06.829Z,4.64
2022-11-24T19:16:34.175Z,4.64
2022-11-24T19:19:02.475Z,4.65
2022-11-24T19:21:31.711Z,4.65
2022-11-24T19:24:04.208Z,4.59
2022-11-24T19:26:31.835Z,4.57
2022-11-24T19:28:58.353Z,4.59
2022-11-24T19:31:24.782Z,4.59
2022-11-24T19:33:52.829Z,4.61
2022-11-24T19:36:21.054Z,4.62
2022-11-24T19:38:52.487Z,4.62
2022-11-24T19:41:20.708Z,4.63
2022-11-24T19:43:47.986Z,4.63
2022-11-24T19:46:17.029Z,4.67
2022-11-24T19:48:45.613Z,4.66
2022-11-24T19:51:14.852Z,4.65
2022-11-24T19:53:42.753Z,4.68
2022-11-24T19:56:17.342Z,4.68
2022-11-24T19:58:44.189Z,4.63
2022-11-24T20:01:13.425Z,4.63
2022-11-24T20:03:41.284Z,4.61
2022-11-24T20:06:09.989Z,4.60
2022-11-24T20:08:37.701Z,4.59
2022-11-24T20:11:07.982Z,4.58
2022-11-24T20:13:35.794Z,4.60
2022-11-24T20:16:09.079Z,4.62
2022-11-24T20:18:41.718Z,4.61
2022-11-24T20:21:11.081Z,4.61
2022-11-24T20:23:38.026Z,4.60
2022-11-24T20:26:07.355Z,4.64
2022-11-24T20:28:34.036Z,4.63
2022-11-24T20:31:05.257Z,4.64
2022-11-24T20:33:32.138Z,4.64
2022-11-24T20:36:04.045Z,4.66
2022-11-24T20:38:30.941Z,4.67
2022-11-24T20:41:09.000Z,4.67
2022-11-24T20:43:36.608Z,4.65
2022-11-24T20:46:08.383Z,4.66
2022-11-24T20:48:35.484Z,4.66
2022-11-24T20:51:08.135Z,4.67
2022-11-24T20:53:35.190Z,4.65
2022-11-24T20:56:06.142Z,4.65
2022-11-24T20:58:34.576Z,4.67
2022-11-24T21:01:12.168Z,4.68
2022-11-24T21:03:43.281Z,4.67
2022-11-24T21:06:11.757Z,4.66
2022-11-24T21:08:39.359Z,4.67
2022-11-24T21:11:06.637Z,4.65
2022-11-24T21:13:34.508Z,4.67
2022-11-24T21:16:10.662Z,4.69
2022-11-24T21:18:37.104Z,4.69
2022-11-24T21:21:03.426Z,4.69
2022-11-24T21:23:29.808Z,4.68
2022-11-24T21:26:05.244Z,4.67
2022-11-24T21:28:32.329Z,4.66
2022-11-24T21:31:10.220Z,4.66
2022-11-24T21:33:45.515Z,4.66
2022-11-24T21:36:14.621Z,4.66
2022-11-24T21:38:42.539Z,4.68
2022-11-24T21:41:10.849Z,4.63
2022-11-24T21:43:37.540Z,4.64
2022-11-24T21:46:06.836Z,4.63
2022-11-24T21:48:35.685Z,4.65
2022-11-24T21:51:04.339Z,4.62
2022-11-24T21:53:33.440Z,4.61
2022-11-24T21:56:01.633Z,4.61
2022-11-24T21:58:29.604Z,4.57
2022-11-24T22:01:02.492Z,4.57
2022-11-24T22:03:29.651Z,4.56
2022-11-24T22:05:57.714Z,4.57
2022-11-24T22:08:25.885Z,4.55
2022-11-24T22:10:52.855Z,4.55
2022-11-24T22:13:20.049Z,4.54
2022-11-24T22:15:46.406Z,4.54
2022-11-24T22:18:12.775Z,4.53
2022-11-24T22:20:39.280Z,4.54
2022-11-24T22:23:05.622Z,4.54
2022-11-24T22:25:33.366Z,4.55
2022-11-24T22:27:59.983Z,4.52
2022-11-24T22:30:26.409Z,4.54
2022-11-24T22:32:53.133Z,4.56
2022-11-24T22:35:19.489Z,4.66
2022-11-24T22:37:46.032Z,4.72
2022-11-24T22:40:12.577Z,4.70
2022-11-24T22:42:38.940Z,4.62
2022-11-24T22:45:05.980Z,4.63
2022-11-24T22:47:32.405Z,4.73
2022-11-24T22:49:58.829Z,4.96
2022-11-24T22:52:25.225Z,4.76
2022-11-24T22:54:51.591Z,4.66
2022-11-24T22:57:18.002Z,4.65
2022-11-24T22:59:44.357Z,4.60
2022-11-24T23:02:10.729Z,4.57
2022-11-24T23:04:37.450Z,4.55
2022-11-24T23:07:03.964Z,4.55
2022-11-24T23:09:30.372Z,4.56
2022-11-24T23:11:56.727Z,4.55
2022-11-24T23:14:23.189Z,4.54
2022-11-24T23:16:49.634Z,4.55
2022-11-24T23:19:16.092Z,4.54
2022-11-24T23:21:42.438Z,4.54
2022-11-24T23:24:10.447Z,4.56
2022-11-24T23:26:39.555Z,4.56
2022-11-24T23:29:06.937Z,4.55
2022-11-24T23:31:33.778Z,4.56
2022-11-24T23:34:03.020Z,4.55
2022-11-24T23:36:30.244Z,4.54
2022-11-24T23:39:01.559Z,4.54
2022-11-24T23:41:30.376Z,4.53
2022-11-24T23:43:56.745Z,4.48
2022-11-24T23:46:25.114Z,4.47
2022-11-24T23:48:53.539Z,4.46
2022-11-24T23:51:31.041Z,4.43
2022-11-24T23:53:58.588Z,4.40
2022-11-24T23:56:26.048Z,4.33
2022-11-24T23:58:52.548Z,4.32
